createdAt,value
2023-05-14T00:01:39.164Z,12.33
2023-05-14T00:04:05.948Z,12.37
2023-05-14T00:06:32.771Z,12.28
2023-05-14T00:08:59.439Z,12.37
2023-05-14T00:11:26.162Z,12.40
2023-05-14T00:13:52.716Z,12.29
2023-05-14T00:16:19.306Z,12.33
2023-05-14T00:18:47.298Z,12.30
2023-05-14T00:21:13.965Z,12.24
2023-05-14T00:23:40.548Z,12.22
2023-05-14T00:26:07.098Z,12.20
2023-05-14T00:28:33.626Z,12.22
2023-05-14T00:31:00.416Z,12.22
2023-05-14T00:33:27.108Z,12.23
2023-05-14T00:35:54.991Z,12.33
2023-05-14T00:38:21.571Z,11.71
2023-05-14T00:40:51.712Z,12.11
2023-05-14T00:43:18.587Z,12.14
2023-05-14T00:45:45.912Z,12.19
2023-05-14T00:48:13.061Z,11.82
2023-05-14T00:50:39.773Z,12.16
2023-05-14T00:53:10.390Z,12.25
2023-05-14T00:55:37.781Z,12.20
2023-05-14T00:58:07.299Z,12.13
2023-05-14T01:00:34.161Z,12.15
2023-05-14T01:03:01.901Z,12.19
2023-05-14T01:05:36.465Z,12.11
2023-05-14T01:08:11.386Z,12.09
2023-05-14T01:10:45.799Z,12.16
2023-05-14T01:13:18.382Z,12.10
2023-05-14T01:15:47.383Z,12.12
2023-05-14T01:18:18.833Z,12.09
2023-05-14T01:20:45.984Z,12.09
2023-05-14T01:23:14.523Z,11.63
2023-05-14T01:25:41.362Z,10.23
2023-05-14T01:28:13.022Z,11.44
2023-05-14T01:30:45.890Z,11.89
2023-05-14T01:33:14.443Z,11.93
2023-05-14T01:35:41.505Z,11.95
2023-05-14T01:38:11.619Z,12.06
2023-05-14T01:40:39.750Z,11.95
2023-05-14T01:43:06.634Z,11.21
2023-05-14T01:45:35.594Z,11.77
2023-05-14T01:48:02.320Z,11.92
2023-05-14T01:50:29.037Z,12.01
2023-05-14T01:52:56.745Z,11.95
2023-05-14T01:55:24.470Z,11.99
2023-05-14T01:57:52.711Z,11.93
2023-05-14T02:00:19.663Z,11.94
2023-05-14T02:02:46.413Z,11.95
2023-05-14T02:05:13.451Z,11.99
2023-05-14T02:07:40.406Z,11.93
2023-05-14T02:10:08.432Z,11.85
2023-05-14T02:12:35.088Z,11.96
2023-05-14T02:15:03.715Z,11.87
2023-05-14T02:17:30.395Z,11.69
2023-05-14T02:19:57.056Z,11.79
2023-05-14T02:22:23.678Z,11.90
2023-05-14T02:24:51.335Z,11.93
2023-05-14T02:27:17.967Z,11.90
2023-05-14T02:29:44.903Z,11.80
2023-05-14T02:32:12.891Z,11.94
2023-05-14T02:34:39.720Z,11.84
2023-05-14T02:37:06.319Z,11.84
2023-05-14T02:39:32.981Z,11.94
2023-05-14T02:41:59.636Z,11.94
2023-05-14T02:44:26.232Z,11.87
2023-05-14T02:46:53.374Z,11.83
2023-05-14T02:49:21.439Z,11.82
2023-05-14T02:51:48.026Z,11.85
2023-05-14T02:54:16.434Z,11.24
2023-05-14T02:56:43.166Z,9.82
2023-05-14T02:59:09.934Z,10.84
2023-05-14T03:01:37.160Z,11.50
2023-05-14T03:04:04.530Z,11.69
2023-05-14T03:06:32.512Z,11.73
2023-05-14T03:08:59.056Z,11.73
2023-05-14T03:11:25.830Z,11.75
2023-05-14T03:13:52.419Z,11.66
2023-05-14T03:16:18.977Z,11.68
2023-05-14T03:18:45.559Z,11.72
2023-05-14T03:21:12.447Z,11.81
2023-05-14T03:23:40.407Z,11.74
2023-05-14T03:26:07.204Z,11.73
2023-05-14T03:28:33.881Z,11.66
2023-05-14T03:31:00.978Z,11.69
2023-05-14T03:33:28.151Z,10.57
2023-05-14T03:35:54.781Z,10.37
2023-05-14T03:38:21.418Z,11.33
2023-05-14T03:40:49.497Z,11.56
2023-05-14T03:43:16.400Z,11.33
2023-05-14T03:45:44.267Z,11.57
2023-05-14T03:48:11.027Z,11.62
2023-05-14T03:50:37.714Z,11.69
2023-05-14T03:53:04.297Z,11.71
2023-05-14T03:55:30.896Z,11.71
2023-05-14T03:57:58.864Z,11.72
2023-05-14T04:00:25.829Z,11.68
2023-05-14T04:02:52.837Z,11.71
2023-05-14T04:05:19.557Z,11.10
2023-05-14T04:07:46.290Z,11.35
2023-05-14T04:10:13.179Z,10.84
2023-05-14T04:12:39.823Z,10.05
2023-05-14T04:15:09.389Z,11.18
2023-05-14T04:17:35.991Z,11.40
2023-05-14T04:20:02.612Z,11.50
2023-05-14T04:22:29.280Z,11.47
2023-05-14T04:24:55.886Z,11.52
2023-05-14T04:27:22.796Z,11.46
2023-05-14T04:29:49.789Z,11.43
2023-05-14T04:32:18.219Z,11.48
2023-05-14T04:34:45.089Z,11.49
2023-05-14T04:37:11.736Z,11.60
2023-05-14T04:39:38.603Z,11.60
2023-05-14T04:42:06.809Z,11.57
2023-05-14T04:44:34.052Z,11.58
2023-05-14T04:47:00.662Z,10.55
2023-05-14T04:49:29.055Z,10.35
2023-05-14T04:51:55.843Z,11.13
2023-05-14T04:54:22.736Z,11.38
2023-05-14T04:56:49.746Z,11.48
2023-05-14T04:59:16.470Z,11.51
2023-05-14T05:01:43.219Z,11.48
2023-05-14T05:04:09.890Z,11.47
2023-05-14T05:06:37.851Z,11.52
2023-05-14T05:09:04.562Z,11.52
2023-05-14T05:11:31.209Z,11.46
2023-05-14T05:13:57.807Z,11.52
2023-05-14T05:16:24.519Z,11.17
2023-05-14T05:18:51.316Z,11.42
2023-05-14T05:21:18.039Z,11.48
2023-05-14T05:23:45.990Z,11.51
2023-05-14T05:26:12.600Z,11.53
2023-05-14T05:28:39.177Z,11.52
2023-05-14T05:31:05.823Z,11.51
2023-05-14T05:33:34.119Z,11.53
2023-05-14T05:36:00.866Z,10.69
2023-05-14T05:38:27.526Z,10.82
2023-05-14T05:40:55.611Z,10.48
2023-05-14T05:43:22.198Z,11.18
2023-05-14T05:45:48.809Z,11.30
2023-05-14T05:48:15.429Z,11.35
2023-05-14T05:50:44.271Z,10.78
2023-05-14T05:53:10.948Z,10.67
2023-05-14T05:55:37.658Z,11.17
2023-05-14T05:58:05.721Z,11.28
2023-05-14T06:00:32.346Z,11.29
2023-05-14T06:02:58.986Z,11.33
2023-05-14T06:05:25.920Z,11.41
2023-05-14T06:07:53.706Z,11.12
2023-05-14T06:10:20.326Z,10.38
2023-05-14T06:12:46.921Z,10.38
2023-05-14T06:15:15.060Z,10.77
2023-05-14T06:17:41.726Z,10.52
2023-05-14T06:20:09.182Z,9.82
2023-05-14T06:22:35.823Z,9.59
2023-05-14T06:25:02.391Z,9.50
2023-05-14T06:27:29.103Z,9.64
2023-05-14T06:29:55.955Z,10.55
2023-05-14T06:32:24.126Z,10.99
2023-05-14T06:34:50.828Z,11.09
2023-05-14T06:37:17.440Z,11.14
2023-05-14T06:39:49.806Z,11.17
2023-05-14T06:42:16.622Z,11.22
2023-05-14T06:44:43.302Z,10.73
2023-05-14T06:47:09.871Z,11.05
2023-05-14T06:49:38.451Z,11.01
2023-05-14T06:52:05.715Z,11.11
2023-05-14T06:54:32.316Z,11.18
2023-05-14T06:56:58.932Z,11.22
2023-05-14T06:59:25.957Z,11.22
2023-05-14T07:01:52.628Z,11.04
2023-05-14T07:04:19.470Z,11.21
2023-05-14T07:06:47.593Z,10.96
2023-05-14T07:09:14.403Z,10.64
2023-05-14T07:11:40.948Z,10.56
2023-05-14T07:14:07.601Z,10.73
2023-05-14T07:16:34.184Z,11.03
2023-05-14T07:19:00.804Z,10.80
2023-05-14T07:21:27.885Z,10.88
2023-05-14T07:23:55.843Z,10.95
2023-05-14T07:26:24.319Z,11.13
2023-05-14T07:28:50.988Z,11.30
2023-05-14T07:31:17.701Z,11.07
2023-05-14T07:33:44.357Z,10.36
2023-05-14T07:36:11.132Z,10.38
2023-05-14T07:38:37.870Z,10.60
2023-05-14T07:41:05.920Z,10.75
2023-05-14T07:43:32.630Z,10.21
2023-05-14T07:45:59.337Z,10.17
2023-05-14T07:48:26.226Z,10.42
2023-05-14T07:50:52.854Z,10.46
2023-05-14T07:53:19.440Z,10.46
2023-05-14T07:55:48.396Z,10.82
2023-05-14T07:58:16.648Z,10.86
2023-05-14T08:00:43.246Z,11.03
2023-05-14T08:03:09.923Z,10.71
2023-05-14T08:05:36.916Z,11.25
2023-05-14T08:08:03.780Z,11.15
2023-05-14T08:10:30.707Z,11.32
2023-05-14T08:12:57.423Z,11.44
2023-05-14T08:15:27.557Z,11.03
2023-05-14T08:17:54.855Z,10.93
2023-05-14T08:20:22.221Z,11.09
2023-05-14T08:22:49.111Z,11.20
2023-05-14T08:25:15.863Z,11.25
2023-05-14T08:27:42.500Z,11.31
2023-05-14T08:30:09.670Z,10.92
2023-05-14T08:32:38.739Z,11.54
2023-05-14T08:35:06.755Z,11.41
2023-05-14T08:37:33.380Z,11.09
2023-05-14T08:40:00.129Z,11.48
2023-05-14T08:42:28.532Z,11.29
2023-05-14T08:45:00.723Z,11.32
2023-05-14T08:47:29.164Z,11.23
2023-05-14T08:50:02.607Z,11.61
2023-05-14T08:52:30.264Z,11.73
2023-05-14T08:54:58.929Z,11.38
2023-05-14T08:57:26.545Z,11.85
2023-05-14T08:59:53.869Z,11.46
2023-05-14T09:02:24.638Z,11.35
2023-05-14T09:04:55.254Z,11.20
2023-05-14T09:07:23.868Z,11.20
2023-05-14T09:09:51.121Z,11.30
2023-05-14T09:12:17.954Z,11.41
2023-05-14T09:14:44.936Z,11.38
2023-05-14T09:17:12.633Z,11.63
2023-05-14T09:19:40.177Z,11.58
2023-05-14T09:22:09.541Z,11.81
2023-05-14T09:24:38.820Z,11.54
2023-05-14T09:27:06.657Z,11.23
2023-05-14T09:29:34.245Z,11.28
2023-05-14T09:32:05.652Z,11.38
2023-05-14T09:34:33.937Z,11.29
2023-05-14T09:37:02.073Z,11.40
2023-05-14T09:39:31.155Z,11.46
2023-05-14T09:41:59.174Z,11.31
2023-05-14T09:44:26.092Z,11.24
2023-05-14T09:46:53.749Z,11.11
2023-05-14T09:49:20.852Z,11.16
2023-05-14T09:51:48.493Z,11.09
2023-05-14T09:54:15.183Z,11.07
2023-05-14T09:56:44.477Z,11.22
2023-05-14T09:59:12.605Z,11.23
2023-05-14T10:01:42.379Z,11.36
2023-05-14T10:04:11.193Z,11.31
2023-05-14T10:06:38.970Z,11.34
2023-05-14T10:09:12.501Z,11.39
2023-05-14T10:11:42.939Z,11.43
2023-05-14T10:14:19.549Z,11.48
2023-05-14T10:16:49.747Z,11.47
2023-05-14T10:19:18.019Z,11.51
2023-05-14T10:21:48.814Z,11.67
2023-05-14T10:24:16.134Z,11.71
2023-05-14T10:26:43.183Z,11.74
2023-05-14T10:29:11.348Z,11.91
2023-05-14T10:31:50.076Z,12.09
2023-05-14T10:34:34.675Z,11.89
2023-05-14T10:37:02.113Z,12.17
2023-05-14T10:39:42.923Z,12.28
2023-05-14T10:42:13.077Z,12.31
2023-05-14T10:44:47.279Z,12.46
2023-05-14T10:47:17.576Z,12.58
2023-05-14T10:49:45.774Z,12.47
2023-05-14T10:52:12.603Z,12.37
2023-05-14T10:54:39.263Z,11.95
2023-05-14T10:57:11.659Z,12.29
2023-05-14T10:59:42.212Z,12.47
2023-05-14T11:02:19.230Z,12.55
2023-05-14T11:04:52.768Z,12.82
2023-05-14T11:07:24.011Z,12.86
2023-05-14T11:09:51.273Z,12.58
2023-05-14T11:12:18.869Z,12.46
2023-05-14T11:14:47.098Z,12.33
2023-05-14T11:17:14.799Z,12.32
2023-05-14T11:19:45.850Z,12.50
2023-05-14T11:22:13.791Z,12.69
2023-05-14T11:24:43.102Z,12.59
2023-05-14T11:27:11.183Z,12.62
2023-05-14T11:29:38.533Z,12.63
2023-05-14T11:32:06.522Z,12.71
2023-05-14T11:34:34.549Z,12.69
2023-05-14T11:37:04.677Z,12.72
2023-05-14T11:39:32.063Z,13.00
2023-05-14T11:42:02.394Z,12.76
2023-05-14T11:44:29.179Z,13.17
2023-05-14T11:46:56.290Z,13.08
2023-05-14T11:49:23.915Z,12.87
2023-05-14T11:51:50.727Z,12.95
2023-05-14T11:54:18.706Z,13.07
2023-05-14T11:56:50.194Z,12.93
2023-05-14T11:59:17.528Z,12.75
2023-05-14T12:01:44.553Z,12.67
2023-05-14T12:04:11.759Z,12.83
2023-05-14T12:06:39.209Z,12.99
2023-05-14T12:09:06.115Z,13.10
2023-05-14T12:11:36.127Z,13.09
2023-05-14T12:14:10.676Z,13.06
2023-05-14T12:16:40.221Z,12.83
2023-05-14T12:19:09.642Z,12.68
2023-05-14T12:21:36.601Z,12.83
2023-05-14T12:24:03.359Z,12.98
2023-05-14T12:26:34.603Z,13.04
2023-05-14T12:29:03.449Z,13.01
2023-05-14T12:31:30.764Z,13.14
2023-05-14T12:33:57.735Z,12.89
2023-05-14T12:36:24.696Z,12.97
2023-05-14T12:38:56.928Z,13.34
2023-05-14T12:41:23.537Z,13.21
2023-05-14T12:43:51.541Z,13.40
2023-05-14T12:46:18.297Z,13.37
2023-05-14T12:48:45.231Z,13.48
2023-05-14T12:51:11.921Z,13.31
2023-05-14T12:53:38.697Z,13.18
2023-05-14T12:56:06.424Z,13.07
2023-05-14T12:58:33.148Z,13.36
2023-05-14T13:01:01.240Z,13.38
2023-05-14T13:03:27.868Z,13.13
2023-05-14T13:05:54.967Z,13.48
2023-05-14T13:08:21.748Z,13.06
2023-05-14T13:10:48.379Z,12.84
2023-05-14T13:13:15.699Z,13.07
2023-05-14T13:15:43.492Z,13.34
2023-05-14T13:18:11.495Z,13.61
2023-05-14T13:20:38.058Z,13.55
2023-05-14T13:23:04.663Z,13.63
2023-05-14T13:25:31.306Z,13.71
2023-05-14T13:27:57.893Z,13.72
2023-05-14T13:30:24.794Z,14.03
2023-05-14T13:32:51.488Z,14.02
2023-05-14T13:35:19.424Z,14.02
2023-05-14T13:37:47.058Z,14.12
2023-05-14T13:40:13.770Z,13.19
2023-05-14T13:42:40.392Z,13.46
2023-05-14T13:45:07.999Z,13.93
2023-05-14T13:47:34.777Z,14.04
2023-05-14T13:50:01.413Z,13.81
2023-05-14T13:52:29.377Z,13.52
2023-05-14T13:54:56.538Z,13.44
2023-05-14T13:57:23.354Z,13.39
2023-05-14T13:59:50.122Z,13.27
2023-05-14T14:02:16.785Z,13.23
2023-05-14T14:04:43.468Z,13.33
2023-05-14T14:07:10.192Z,13.28
2023-05-14T14:09:38.165Z,13.43
2023-05-14T14:12:05.808Z,13.44
2023-05-14T14:14:32.609Z,13.19
2023-05-14T14:16:59.207Z,13.38
2023-05-14T14:19:25.860Z,13.43
2023-05-14T14:21:53.059Z,13.28
2023-05-14T14:24:20.008Z,12.98
2023-05-14T14:26:48.004Z,13.19
2023-05-14T14:29:14.676Z,13.17
2023-05-14T14:31:41.410Z,13.15
2023-05-14T14:34:08.294Z,12.92
2023-05-14T14:36:34.946Z,12.65
2023-05-14T14:39:01.698Z,12.82
2023-05-14T14:41:28.326Z,12.66
2023-05-14T14:43:58.942Z,12.84
2023-05-14T14:46:25.647Z,12.77
2023-05-14T14:48:52.706Z,12.81
2023-05-14T14:51:19.498Z,12.49
2023-05-14T14:53:46.230Z,12.56
2023-05-14T14:56:12.867Z,12.77
2023-05-14T14:58:39.542Z,12.82
2023-05-14T15:01:07.613Z,12.85
2023-05-14T15:03:34.424Z,12.85
2023-05-14T15:06:01.192Z,12.85
2023-05-14T15:08:28.586Z,12.82
2023-05-14T15:10:56.256Z,12.86
2023-05-14T15:13:23.192Z,12.83
2023-05-14T15:15:52.066Z,12.85
2023-05-14T15:18:20.190Z,12.83
2023-05-14T15:20:47.030Z,12.61
2023-05-14T15:23:13.832Z,12.70
2023-05-14T15:25:40.631Z,12.82
2023-05-14T15:28:07.627Z,12.84
2023-05-14T15:30:34.736Z,12.84
2023-05-14T15:33:01.458Z,12.52
2023-05-14T15:35:29.594Z,12.19
2023-05-14T15:37:59.515Z,11.96
2023-05-14T15:40:27.355Z,12.58
2023-05-14T15:42:54.212Z,12.05
2023-05-14T15:45:21.053Z,11.49
2023-05-14T15:47:47.719Z,11.28
2023-05-14T15:50:14.362Z,11.40
2023-05-14T15:52:42.420Z,11.39
2023-05-14T15:55:10.109Z,11.38
2023-05-14T15:57:36.912Z,11.11
2023-05-14T16:00:10.997Z,11.19
2023-05-14T16:02:38.021Z,11.32
2023-05-14T16:05:05.629Z,12.31
2023-05-14T16:07:33.160Z,12.44
2023-05-14T16:10:01.069Z,12.44
2023-05-14T16:12:27.880Z,11.68
2023-05-14T16:14:57.503Z,11.98
2023-05-14T16:17:24.066Z,12.45
2023-05-14T16:19:50.812Z,12.57
2023-05-14T16:22:17.530Z,12.60
2023-05-14T16:24:44.834Z,12.59
2023-05-14T16:27:12.875Z,12.60
2023-05-14T16:29:39.453Z,12.28
2023-05-14T16:32:06.313Z,12.44
2023-05-14T16:34:32.912Z,12.58
2023-05-14T16:36:59.642Z,12.61
2023-05-14T16:39:26.318Z,12.64
2023-05-14T16:41:52.886Z,12.62
2023-05-14T16:44:20.924Z,12.63
2023-05-14T16:46:48.082Z,12.64
2023-05-14T16:49:14.750Z,12.61
2023-05-14T16:51:43.159Z,12.62
2023-05-14T16:54:09.862Z,12.67
2023-05-14T16:56:36.731Z,12.66
2023-05-14T16:59:03.371Z,12.68
2023-05-14T17:01:31.844Z,12.67
2023-05-14T17:03:58.778Z,12.75
2023-05-14T17:06:25.426Z,12.53
2023-05-14T17:08:51.998Z,12.43
2023-05-14T17:11:18.595Z,12.30
2023-05-14T17:13:45.172Z,12.37
2023-05-14T17:16:12.034Z,12.40
2023-05-14T17:18:40.126Z,12.09
2023-05-14T17:21:07.513Z,12.01
2023-05-14T17:23:34.334Z,11.73
2023-05-14T17:26:01.000Z,11.93
2023-05-14T17:28:29.744Z,12.46
2023-05-14T17:30:56.545Z,12.57
2023-05-14T17:33:23.163Z,12.60
2023-05-14T17:35:51.410Z,12.45
2023-05-14T17:38:18.075Z,12.36
2023-05-14T17:40:44.779Z,12.36
2023-05-14T17:43:11.596Z,12.33
2023-05-14T17:45:52.608Z,12.07
2023-05-14T17:48:20.391Z,11.73
2023-05-14T17:50:47.029Z,11.44
2023-05-14T17:53:15.147Z,11.38
2023-05-14T17:55:43.644Z,11.18
2023-05-14T17:58:11.404Z,11.85
2023-05-14T18:00:38.143Z,11.94
2023-05-14T18:03:04.921Z,12.32
2023-05-14T18:05:32.568Z,12.52
2023-05-14T18:07:59.851Z,12.56
2023-05-14T18:10:29.563Z,12.58
2023-05-14T18:12:56.659Z,12.58
2023-05-14T18:15:25.702Z,12.58
2023-05-14T18:17:52.983Z,12.57
2023-05-14T18:20:20.076Z,12.54
2023-05-14T18:22:46.790Z,12.57
2023-05-14T18:25:13.712Z,12.59
2023-05-14T18:27:44.502Z,12.58
2023-05-14T18:30:12.957Z,12.57
2023-05-14T18:32:40.073Z,12.50
2023-05-14T18:35:08.204Z,12.59
2023-05-14T18:37:35.282Z,12.58
2023-05-14T18:40:06.881Z,12.57
2023-05-14T18:42:34.012Z,12.58
2023-05-14T18:45:03.206Z,11.90
2023-05-14T18:47:29.954Z,12.10
2023-05-14T18:49:59.007Z,12.46
2023-05-14T18:52:26.326Z,12.51
2023-05-14T18:54:54.616Z,12.53
2023-05-14T18:57:22.810Z,12.56
2023-05-14T18:59:49.411Z,12.58
2023-05-14T19:02:17.527Z,12.59
2023-05-14T19:04:52.357Z,12.59
2023-05-14T19:07:20.001Z,12.56
2023-05-14T19:09:46.611Z,12.55
2023-05-14T19:12:13.699Z,12.55
2023-05-14T19:14:40.283Z,12.55
2023-05-14T19:17:07.398Z,12.54
2023-05-14T19:19:35.535Z,12.33
2023-05-14T19:22:02.170Z,12.50
2023-05-14T19:24:28.770Z,12.51
2023-05-14T19:26:55.903Z,12.56
2023-05-14T19:29:22.427Z,12.55
2023-05-14T19:31:49.991Z,12.52
2023-05-14T19:34:16.889Z,12.53
2023-05-14T19:36:44.974Z,12.51
2023-05-14T19:39:11.624Z,12.52
2023-05-14T19:41:38.554Z,12.38
2023-05-14T19:44:05.518Z,12.49
2023-05-14T19:46:32.176Z,12.40
2023-05-14T19:48:58.869Z,12.45
2023-05-14T19:51:25.522Z,12.41
2023-05-14T19:53:53.459Z,12.47
2023-05-14T19:56:20.093Z,12.51
2023-05-14T19:58:46.657Z,11.63
2023-05-14T20:01:14.471Z,12.33
2023-05-14T20:03:41.225Z,12.42
2023-05-14T20:06:08.028Z,11.97
2023-05-14T20:08:34.646Z,12.38
2023-05-14T20:11:03.281Z,12.45
2023-05-14T20:13:31.968Z,12.45
2023-05-14T20:15:58.695Z,12.44
2023-05-14T20:18:25.417Z,12.45
2023-05-14T20:20:52.053Z,12.46
2023-05-14T20:23:18.754Z,12.46
2023-05-14T20:25:45.446Z,12.47
2023-05-14T20:28:13.435Z,12.44
2023-05-14T20:30:40.758Z,12.42
2023-05-14T20:33:08.156Z,12.42
2023-05-14T20:35:34.835Z,12.40
2023-05-14T20:38:03.441Z,12.43
2023-05-14T20:40:30.451Z,12.47
2023-05-14T20:42:57.159Z,12.48
2023-05-14T20:45:25.450Z,12.48
2023-05-14T20:47:52.714Z,12.45
2023-05-14T20:50:19.375Z,12.44
2023-05-14T20:52:45.960Z,12.44
2023-05-14T20:55:13.314Z,12.41
2023-05-14T20:57:40.733Z,12.45
2023-05-14T21:00:11.414Z,12.50
2023-05-14T21:02:39.566Z,12.48
2023-05-14T21:05:07.060Z,12.42
2023-05-14T21:07:33.653Z,12.40
2023-05-14T21:10:01.016Z,12.38
2023-05-14T21:12:27.621Z,12.36
2023-05-14T21:14:54.180Z,12.41
2023-05-14T21:17:20.845Z,12.39
2023-05-14T21:19:48.833Z,12.36
2023-05-14T21:22:15.430Z,12.32
2023-05-14T21:24:42.013Z,12.35
2023-05-14T21:27:11.285Z,12.36
2023-05-14T21:29:38.527Z,12.36
2023-05-14T21:32:06.126Z,12.39
2023-05-14T21:34:32.721Z,12.45
2023-05-14T21:37:00.874Z,12.45
2023-05-14T21:39:27.417Z,12.12
2023-05-14T21:41:53.989Z,12.31
2023-05-14T21:44:21.029Z,12.09
2023-05-14T21:46:47.751Z,12.26
2023-05-14T21:49:14.313Z,12.33
2023-05-14T21:51:40.904Z,12.34
2023-05-14T21:54:09.539Z,11.64
2023-05-14T21:56:37.120Z,12.17
2023-05-14T21:59:03.735Z,12.30
2023-05-14T22:01:30.368Z,12.31
2023-05-14T22:03:58.016Z,12.33
2023-05-14T22:06:25.056Z,12.34
2023-05-14T22:08:51.642Z,12.03
2023-05-14T22:11:19.826Z,12.19
2023-05-14T22:13:46.458Z,12.28
2023-05-14T22:16:13.969Z,12.28
2023-05-14T22:18:41.030Z,12.28
2023-05-14T22:21:07.729Z,12.29
2023-05-14T22:23:34.416Z,12.26
2023-05-14T22:26:01.142Z,12.23
2023-05-14T22:28:29.101Z,12.22
2023-05-14T22:30:56.552Z,12.23
2023-05-14T22:33:23.302Z,11.84
2023-05-14T22:35:49.893Z,12.15
2023-05-14T22:38:16.586Z,12.02
2023-05-14T22:40:43.182Z,12.17
2023-05-14T22:43:09.781Z,11.71
2023-05-14T22:45:37.867Z,11.97
2023-05-14T22:48:04.795Z,11.92
2023-05-14T22:50:31.475Z,12.02
2023-05-14T22:52:58.069Z,11.96
2023-05-14T22:55:24.894Z,11.50
2023-05-14T22:57:51.661Z,11.84
2023-05-14T23:00:18.695Z,12.05
2023-05-14T23:02:46.821Z,11.89
2023-05-14T23:05:13.572Z,12.09
2023-05-14T23:07:40.579Z,11.73
2023-05-14T23:10:08.072Z,11.39
2023-05-14T23:12:34.837Z,11.64
2023-05-14T23:15:01.533Z,11.14
2023-05-14T23:17:28.353Z,11.57
2023-05-14T23:19:56.585Z,11.34
2023-05-14T23:22:23.147Z,11.87
2023-05-14T23:24:49.793Z,11.72
2023-05-14T23:27:16.743Z,11.95
2023-05-14T23:29:43.348Z,11.84
2023-05-14T23:32:10.179Z,11.87
2023-05-14T23:34:36.880Z,12.04
2023-05-14T23:37:05.403Z,11.40
2023-05-14T23:39:32.787Z,11.87
2023-05-14T23:41:59.417Z,11.82
2023-05-14T23:44:26.494Z,11.61
2023-05-14T23:46:53.315Z,11.74
2023-05-14T23:49:20.123Z,10.94
2023-05-14T23:51:46.747Z,11.78
2023-05-14T23:54:14.710Z,11.92
2023-05-14T23:56:41.324Z,11.98
2023-05-14T23:59:07.979Z,11.99
